sensor_id;sensor_type;location;lat;lon;timestamp;pressure;altitude;pressure_sealevel;temperature;humidity
63554;BME280;49699;48.072;7.800;2023-05-01T00:01:02;99315.25;;;12.05;69.98
63554;BME280;49699;48.072;7.800;2023-05-01T00:03:30;99306.78;;;12.02;70.17
63554;BME280;49699;48.072;7.800;2023-05-01T00:05:59;99309.50;;;12.00;69.99
63554;BME280;49699;48.072;7.800;2023-05-01T00:08:25;99309.63;;;11.99;70.28
63554;BME280;49699;48.072;7.800;2023-05-01T00:10:50;99304.50;;;11.97;70.14
63554;BME280;49699;48.072;7.800;2023-05-01T00:13:16;99302.63;;;11.99;70.42
63554;BME280;49699;48.072;7.800;2023-05-01T00:15:45;99305.25;;;11.99;70.39
63554;BME280;49699;48.072;7.800;2023-05-01T00:18:11;99301.78;;;11.99;70.40
63554;BME280;49699;48.072;7.800;2023-05-01T00:20:36;99305.00;;;12.02;70.33
63554;BME280;49699;48.072;7.800;2023-05-01T00:23:01;99299.59;;;12.05;70.18
63554;BME280;49699;48.072;7.800;2023-05-01T00:25:27;99302.94;;;12.07;70.18
63554;BME280;49699;48.072;7.800;2023-05-01T00:27:53;99294.19;;;12.08;70.05
63554;BME280;49699;48.072;7.800;2023-05-01T00:30:18;99298.47;;;12.09;70.22
63554;BME280;49699;48.072;7.800;2023-05-01T00:32:43;99288.97;;;12.08;70.37
63554;BME280;49699;48.072;7.800;2023-05-01T00:35:09;99280.41;;;12.06;70.41
63554;BME280;49699;48.072;7.800;2023-05-01T00:37:34;99287.38;;;12.06;70.31
63554;BME280;49699;48.072;7.800;2023-05-01T00:39:59;99283.09;;;12.05;70.59
63554;BME280;49699;48.072;7.800;2023-05-01T00:42:25;99277.78;;;12.06;70.62
63554;BME280;49699;48.072;7.800;2023-05-01T00:44:50;99272.47;;;12.08;70.59
63554;BME280;49699;48.072;7.800;2023-05-01T00:47:15;99274.06;;;12.10;70.43
63554;BME280;49699;48.072;7.800;2023-05-01T00:49:41;99266.22;;;12.10;70.58
63554;BME280;49699;48.072;7.800;2023-05-01T00:52:07;99271.44;;;12.10;70.53
63554;BME280;49699;48.072;7.800;2023-05-01T00:54:34;99270.72;;;12.08;70.48
63554;BME280;49699;48.072;7.800;2023-05-01T00:56:59;99263.72;;;12.09;70.64
63554;BME280;49699;48.072;7.800;2023-05-01T00:59:25;99270.59;;;12.10;70.41
63554;BME280;49699;48.072;7.800;2023-05-01T01:01:50;99266.13;;;12.12;70.39
63554;BME280;49699;48.072;7.800;2023-05-01T01:04:16;99255.59;;;12.13;70.39
63554;BME280;49699;48.072;7.800;2023-05-01T01:06:51;99250.38;;;12.13;70.22
63554;BME280;49699;48.072;7.800;2023-05-01T01:14:49;99242.66;;;12.12;70.45
63554;BME280;49699;48.072;7.800;2023-05-01T01:19:53;99241.91;;;12.10;70.41
63554;BME280;49699;48.072;7.800;2023-05-01T01:22:22;99240.13;;;12.10;70.41
63554;BME280;49699;48.072;7.800;2023-05-01T01:35:17;99227.69;;;12.01;70.85
63554;BME280;49699;48.072;7.800;2023-05-01T01:38:03;99226.34;;;11.96;71.22
63554;BME280;49699;48.072;7.800;2023-05-01T01:43:14;99224.44;;;11.85;71.60
63554;BME280;49699;48.072;7.800;2023-05-01T01:45:42;99228.81;;;11.85;71.52
63554;BME280;49699;48.072;7.800;2023-05-01T01:48:12;99228.91;;;11.83;71.56
63554;BME280;49699;48.072;7.800;2023-05-01T01:50:38;99234.13;;;11.83;71.43
63554;BME280;49699;48.072;7.800;2023-05-01T01:53:05;99230.59;;;11.84;71.53
63554;BME280;49699;48.072;7.800;2023-05-01T01:55:33;99221.94;;;11.83;71.62
63554;BME280;49699;48.072;7.800;2023-05-01T01:57:59;99227.97;;;11.84;71.62
63554;BME280;49699;48.072;7.800;2023-05-01T02:00:27;99221.09;;;11.83;71.73
63554;BME280;49699;48.072;7.800;2023-05-01T02:02:53;99215.69;;;11.86;71.86
63554;BME280;49699;48.072;7.800;2023-05-01T02:05:20;99209.53;;;11.87;71.84
63554;BME280;49699;48.072;7.800;2023-05-01T02:07:47;99207.75;;;11.88;71.89
63554;BME280;49699;48.072;7.800;2023-05-01T02:10:14;99212.13;;;11.87;71.94
63554;BME280;49699;48.072;7.800;2023-05-01T02:12:47;99215.03;;;11.82;72.30
63554;BME280;49699;48.072;7.800;2023-05-01T02:15:14;99214.78;;;11.73;72.60
63554;BME280;49699;48.072;7.800;2023-05-01T02:17:40;99218.72;;;11.66;72.84
63554;BME280;49699;48.072;7.800;2023-05-01T02:20:06;99215.72;;;11.59;73.23
63554;BME280;49699;48.072;7.800;2023-05-01T02:22:33;99220.38;;;11.54;73.57
63554;BME280;49699;48.072;7.800;2023-05-01T02:24:59;99225.69;;;11.53;73.71
63554;BME280;49699;48.072;7.800;2023-05-01T02:27:28;99222.13;;;11.54;73.71
63554;BME280;49699;48.072;7.800;2023-05-01T02:29:55;99224.84;;;11.52;73.88
63554;BME280;49699;48.072;7.800;2023-05-01T02:32:20;99220.47;;;11.53;73.68
63554;BME280;49699;48.072;7.800;2023-05-01T02:34:45;99218.69;;;11.53;73.80
63554;BME280;49699;48.072;7.800;2023-05-01T02:37:10;99231.63;;;11.55;74.00
63554;BME280;49699;48.072;7.800;2023-05-01T02:39:37;99215.16;;;11.54;73.75
63554;BME280;49699;48.072;7.800;2023-05-01T02:42:03;99215.06;;;11.56;73.56
63554;BME280;49699;48.072;7.800;2023-05-01T02:44:37;99219.34;;;11.57;73.63
63554;BME280;49699;48.072;7.800;2023-05-01T02:47:04;99214.97;;;11.57;73.45
63554;BME280;49699;48.072;7.800;2023-05-01T02:49:31;99222.50;;;11.62;73.29
63554;BME280;49699;48.072;7.800;2023-05-01T02:51:57;99218.94;;;11.63;73.52
63554;BME280;49699;48.072;7.800;2023-05-01T02:54:24;99216.97;;;11.66;73.49
63554;BME280;49699;48.072;7.800;2023-05-01T02:56:50;99214.25;;;11.68;73.35
63554;BME280;49699;48.072;7.800;2023-05-01T02:59:16;99215.81;;;11.70;73.39
63554;BME280;49699;48.072;7.800;2023-05-01T03:01:41;99206.34;;;11.69;73.39
63554;BME280;49699;48.072;7.800;2023-05-01T03:04:07;99205.50;;;11.69;73.31
63554;BME280;49699;48.072;7.800;2023-05-01T03:06:32;99201.84;;;11.71;73.45
63554;BME280;49699;48.072;7.800;2023-05-01T03:08:57;99200.19;;;11.70;73.48
63554;BME280;49699;48.072;7.800;2023-05-01T03:11:23;99201.97;;;11.70;73.12
63554;BME280;49699;48.072;7.800;2023-05-01T03:13:48;99200.09;;;11.72;73.41
63554;BME280;49699;48.072;7.800;2023-05-01T03:16:14;99200.19;;;11.70;72.97
63554;BME280;49699;48.072;7.800;2023-05-01T03:18:39;99201.97;;;11.70;73.44
63554;BME280;49699;48.072;7.800;2023-05-01T03:21:04;99199.34;;;11.70;73.57
63554;BME280;49699;48.072;7.800;2023-05-01T03:23:30;99199.44;;;11.68;73.26
63554;BME280;49699;48.072;7.800;2023-05-01T03:25:55;99195.06;;;11.69;73.19
63554;BME280;49699;48.072;7.800;2023-05-01T03:28:22;99205.59;;;11.67;73.41
63554;BME280;49699;48.072;7.800;2023-05-01T03:30:50;99199.66;;;11.65;73.54
63554;BME280;49699;48.072;7.800;2023-05-01T03:33:16;99194.44;;;11.65;73.44
63554;BME280;49699;48.072;7.800;2023-05-01T03:35:42;99199.53;;;11.67;73.72
63554;BME280;49699;48.072;7.800;2023-05-01T03:38:07;99191.72;;;11.67;73.60
63554;BME280;49699;48.072;7.800;2023-05-01T03:40:51;99193.50;;;11.66;73.63
63554;BME280;49699;48.072;7.800;2023-05-01T03:43:35;99203.00;;;11.67;73.85
63554;BME280;49699;48.072;7.800;2023-05-01T03:46:06;99195.25;;;11.66;73.91
63554;BME280;49699;48.072;7.800;2023-05-01T03:48:31;99206.53;;;11.66;73.83
63554;BME280;49699;48.072;7.800;2023-05-01T03:50:56;99204.84;;;11.65;74.34
63554;BME280;49699;48.072;7.800;2023-05-01T03:53:22;99209.38;;;11.63;74.11
63554;BME280;49699;48.072;7.800;2023-05-01T03:55:48;99205.09;;;11.62;74.45
63554;BME280;49699;48.072;7.800;2023-05-01T03:58:13;99210.28;;;11.62;74.38
63554;BME280;49699;48.072;7.800;2023-05-01T04:00:38;99205.81;;;11.64;74.58
63554;BME280;49699;48.072;7.800;2023-05-01T04:03:04;99206.53;;;11.66;74.44
63554;BME280;49699;48.072;7.800;2023-05-01T04:05:31;99205.59;;;11.67;74.33
63554;BME280;49699;48.072;7.800;2023-05-01T04:08:00;99208.19;;;11.67;74.44
63554;BME280;49699;48.072;7.800;2023-05-01T04:10:25;99208.09;;;11.69;74.37
63554;BME280;49699;48.072;7.800;2023-05-01T04:12:58;99213.31;;;11.69;74.31
63554;BME280;49699;48.072;7.800;2023-05-01T04:15:25;99212.28;;;11.71;74.31
63554;BME280;49699;48.072;7.800;2023-05-01T04:17:51;99204.47;;;11.71;74.49
63554;BME280;49699;48.072;7.800;2023-05-01T04:20:17;99214.06;;;11.71;74.60
63554;BME280;49699;48.072;7.800;2023-05-01T04:22:43;99213.31;;;11.69;74.68
63554;BME280;49699;48.072;7.800;2023-05-01T04:25:09;99221.03;;;11.70;74.54
63554;BME280;49699;48.072;7.800;2023-05-01T04:27:34;99212.38;;;11.70;74.86
63554;BME280;49699;48.072;7.800;2023-05-01T04:30:00;99215.94;;;11.69;74.82
63554;BME280;49699;48.072;7.800;2023-05-01T04:32:25;99210.72;;;11.69;75.08
63554;BME280;49699;48.072;7.800;2023-05-01T04:34:51;99214.25;;;11.68;75.06
63554;BME280;49699;48.072;7.800;2023-05-01T04:37:16;99217.06;;;11.65;75.48
63554;BME280;49699;48.072;7.800;2023-05-01T04:39:42;99223.22;;;11.64;75.61
63554;BME280;49699;48.072;7.800;2023-05-01T04:42:08;99216.44;;;11.61;76.03
63554;BME280;49699;48.072;7.800;2023-05-01T04:44:34;99226.97;;;11.60;76.05
63554;BME280;49699;48.072;7.800;2023-05-01T04:47:01;99217.56;;;11.57;76.19
63554;BME280;49699;48.072;7.800;2023-05-01T04:49:27;99221.84;;;11.58;76.45
63554;BME280;49699;48.072;7.800;2023-05-01T04:51:52;99229.56;;;11.60;76.47
63554;BME280;49699;48.072;7.800;2023-05-01T04:54:18;99229.38;;;11.63;76.34
63554;BME280;49699;48.072;7.800;2023-05-01T04:56:45;99233.44;;;11.67;76.37
63554;BME280;49699;48.072;7.800;2023-05-01T04:59:10;99234.06;;;11.70;76.40
63554;BME280;49699;48.072;7.800;2023-05-01T05:01:35;99231.28;;;11.73;76.08
63554;BME280;49699;48.072;7.800;2023-05-01T05:04:02;99238.00;;;11.77;76.25
63554;BME280;49699;48.072;7.800;2023-05-01T05:06:28;99237.69;;;11.82;75.82
63554;BME280;49699;48.072;7.800;2023-05-01T05:08:53;99240.81;;;11.87;75.87
63554;BME280;49699;48.072;7.800;2023-05-01T05:11:20;99249.38;;;11.89;75.82
63554;BME280;49699;48.072;7.800;2023-05-01T05:13:56;99240.63;;;11.90;75.79
63554;BME280;49699;48.072;7.800;2023-05-01T05:16:22;99246.47;;;11.94;75.54
63554;BME280;49699;48.072;7.800;2023-05-01T05:18:47;99242.00;;;11.96;75.49
63554;BME280;49699;48.072;7.800;2023-05-01T05:21:13;99246.28;;;11.97;75.58
63554;BME280;49699;48.072;7.800;2023-05-01T05:23:44;99249.72;;;11.97;75.66
63554;BME280;49699;48.072;7.800;2023-05-01T05:26:10;99248.06;;;11.96;75.65
63554;BME280;49699;48.072;7.800;2023-05-01T05:28:35;99246.38;;;11.95;75.77
63554;BME280;49699;48.072;7.800;2023-05-01T05:31:01;99252.34;;;11.97;75.81
63554;BME280;49699;48.072;7.800;2023-05-01T05:33:26;99253.91;;;12.00;75.80
63554;BME280;49699;48.072;7.800;2023-05-01T05:35:53;99253.69;;;12.03;75.72
63554;BME280;49699;48.072;7.800;2023-05-01T05:38:23;99251.81;;;12.05;75.95
63554;BME280;49699;48.072;7.800;2023-05-01T05:40:51;99261.22;;;12.07;75.81
63554;BME280;49699;48.072;7.800;2023-05-01T05:43:18;99252.34;;;12.10;75.84
63554;BME280;49699;48.072;7.800;2023-05-01T05:45:44;99256.63;;;12.11;75.56
63554;BME280;49699;48.072;7.800;2023-05-01T05:48:09;99249.53;;;12.13;75.73
63554;BME280;49699;48.072;7.800;2023-05-01T05:50:38;99264.06;;;12.17;75.64
63554;BME280;49699;48.072;7.800;2023-05-01T05:53:03;99260.72;;;12.15;75.67
63554;BME280;49699;48.072;7.800;2023-05-01T05:55:29;99260.81;;;12.13;75.84
63554;BME280;49699;48.072;7.800;2023-05-01T05:58:00;99260.91;;;12.12;76.08
63554;BME280;49699;48.072;7.800;2023-05-01T06:00:25;99265.28;;;12.11;76.29
63554;BME280;49699;48.072;7.800;2023-05-01T06:02:51;99265.50;;;12.08;76.28
63554;BME280;49699;48.072;7.800;2023-05-01T06:05:18;99265.69;;;12.05;76.75
63554;BME280;49699;48.072;7.800;2023-05-01T06:07:43;99271.09;;;12.02;76.96
63554;BME280;49699;48.072;7.800;2023-05-01T06:10:09;99266.94;;;12.00;77.39
63554;BME280;49699;48.072;7.800;2023-05-01T06:12:35;99255.97;;;11.95;77.68
63554;BME280;49699;48.072;7.800;2023-05-01T06:15:03;99258.97;;;11.89;78.16
63554;BME280;49699;48.072;7.800;2023-05-01T06:17:35;99267.09;;;11.84;78.56
63554;BME280;49699;48.072;7.800;2023-05-01T06:20:01;99264.50;;;11.84;78.69
63554;BME280;49699;48.072;7.800;2023-05-01T06:22:29;99259.38;;;11.82;78.75
63554;BME280;49699;48.072;7.800;2023-05-01T06:25:16;99264.72;;;11.81;79.53
63554;BME280;49699;48.072;7.800;2023-05-01T06:27:41;99271.78;;;11.79;79.70
63554;BME280;49699;48.072;7.800;2023-05-01T06:30:07;99264.91;;;11.78;79.96
63554;BME280;49699;48.072;7.800;2023-05-01T06:32:35;99267.63;;;11.76;80.24
63554;BME280;49699;48.072;7.800;2023-05-01T06:35:00;99261.72;;;11.73;80.53
63554;BME280;49699;48.072;7.800;2023-05-01T06:37:25;99264.34;;;11.73;80.63
63554;BME280;49699;48.072;7.800;2023-05-01T06:39:51;99265.25;;;11.72;80.65
63554;BME280;49699;48.072;7.800;2023-05-01T06:42:16;99264.22;;;11.74;80.94
63554;BME280;49699;48.072;7.800;2023-05-01T06:44:42;99265.91;;;11.75;81.08
63554;BME280;49699;48.072;7.800;2023-05-01T06:47:07;99272.72;;;11.78;81.10
63554;BME280;49699;48.072;7.800;2023-05-01T06:49:33;99269.19;;;11.79;81.21
63554;BME280;49699;48.072;7.800;2023-05-01T06:51:59;99277.75;;;11.81;81.34
63554;BME280;49699;48.072;7.800;2023-05-01T06:54:24;99280.97;;;11.85;81.31
63554;BME280;49699;48.072;7.800;2023-05-01T06:56:51;99287.75;;;11.87;80.94
63554;BME280;49699;48.072;7.800;2023-05-01T06:59:16;99286.63;;;11.91;81.26
63554;BME280;49699;48.072;7.800;2023-05-01T07:01:41;99295.94;;;11.95;81.04
63554;BME280;49699;48.072;7.800;2023-05-01T07:04:07;99304.28;;;12.00;80.92
63554;BME280;49699;48.072;7.800;2023-05-01T07:06:32;99298.97;;;12.02;81.09
63554;BME280;49699;48.072;7.800;2023-05-01T07:08:57;99304.19;;;12.02;81.08
63554;BME280;49699;48.072;7.800;2023-05-01T07:11:23;99300.63;;;12.03;81.30
63554;BME280;49699;48.072;7.800;2023-05-01T07:13:48;99298.13;;;12.01;81.32
63554;BME280;49699;48.072;7.800;2023-05-01T07:16:13;99295.63;;;12.00;81.34
63554;BME280;49699;48.072;7.800;2023-05-01T07:18:38;99309.50;;;12.00;81.29
63554;BME280;49699;48.072;7.800;2023-05-01T07:21:04;99295.31;;;12.04;81.38
63554;BME280;49699;48.072;7.800;2023-05-01T07:23:29;99295.97;;;12.08;81.31
63554;BME280;49699;48.072;7.800;2023-05-01T07:25:54;99290.63;;;12.09;81.45
63554;BME280;49699;48.072;7.800;2023-05-01T07:28:20;99293.88;;;12.13;81.62
63554;BME280;49699;48.072;7.800;2023-05-01T07:30:46;99291.91;;;12.16;81.41
63554;BME280;49699;48.072;7.800;2023-05-01T07:33:12;99291.69;;;12.20;81.34
63554;BME280;49699;48.072;7.800;2023-05-01T07:35:37;99287.31;;;12.20;81.42
63554;BME280;49699;48.072;7.800;2023-05-01T07:38:02;99293.16;;;12.24;81.49
63554;BME280;49699;48.072;7.800;2023-05-01T07:40:28;99294.63;;;12.28;81.40
63554;BME280;49699;48.072;7.800;2023-05-01T07:42:53;99291.84;;;12.31;81.33
63554;BME280;49699;48.072;7.800;2023-05-01T07:45:19;99287.44;;;12.31;81.43
63554;BME280;49699;48.072;7.800;2023-05-01T07:47:44;99297.78;;;12.33;81.29
63554;BME280;49699;48.072;7.800;2023-05-01T07:50:10;99299.47;;;12.34;81.62
63554;BME280;49699;48.072;7.800;2023-05-01T07:52:36;99294.34;;;12.32;81.70
63554;BME280;49699;48.072;7.800;2023-05-01T07:55:01;99295.28;;;12.31;81.74
63554;BME280;49699;48.072;7.800;2023-05-01T07:57:27;99295.19;;;12.33;81.96
63554;BME280;49699;48.072;7.800;2023-05-01T07:59:55;99291.53;;;12.35;82.15
63554;BME280;49699;48.072;7.800;2023-05-01T08:02:21;99286.81;;;12.40;82.02
63554;BME280;49699;48.072;7.800;2023-05-01T08:04:46;99286.31;;;12.48;81.99
63554;BME280;49699;48.072;7.800;2023-05-01T08:07:12;99291.94;;;12.55;81.87
63554;BME280;49699;48.072;7.800;2023-05-01T08:09:38;99293.09;;;12.63;81.61
63554;BME280;49699;48.072;7.800;2023-05-01T08:12:03;99297.56;;;12.74;81.30
63554;BME280;49699;48.072;7.800;2023-05-01T08:14:28;99295.28;;;12.82;81.12
63554;BME280;49699;48.072;7.800;2023-05-01T08:16:54;99293.09;;;12.89;80.80
63554;BME280;49699;48.072;7.800;2023-05-01T08:19:19;99298.59;;;12.97;80.73
63554;BME280;49699;48.072;7.800;2023-05-01T08:21:45;99287.75;;;13.03;80.68
63554;BME280;49699;48.072;7.800;2023-05-01T08:24:10;99301.44;;;13.06;80.46
63554;BME280;49699;48.072;7.800;2023-05-01T08:26:35;99292.41;;;13.10;nan
63554;BME280;49699;48.072;7.800;2023-05-01T08:29:00;99300.16;;;13.12;80.54
63554;BME280;49699;48.072;7.800;2023-05-01T08:31:26;99300.81;;;13.15;80.37
63554;BME280;49699;48.072;7.800;2023-05-01T08:33:51;99291.72;;;13.21;80.15
63554;BME280;49699;48.072;7.800;2023-05-01T08:36:16;99299.94;;;13.28;80.11
63554;BME280;49699;48.072;7.800;2023-05-01T08:38:42;99292.50;;;13.34;79.72
63554;BME280;49699;48.072;7.800;2023-05-01T08:41:07;99294.34;;;13.45;79.60
63554;BME280;49699;48.072;7.800;2023-05-01T08:43:33;99284.06;;;13.54;79.21
63554;BME280;49699;48.072;7.800;2023-05-01T08:45:59;99294.47;;;13.67;78.90
63554;BME280;49699;48.072;7.800;2023-05-01T08:48:25;99294.06;;;13.84;78.26
63554;BME280;49699;48.072;7.800;2023-05-01T08:50:52;99295.34;;;14.03;77.85
63554;BME280;49699;48.072;7.800;2023-05-01T08:53:19;99290.50;;;14.20;77.20
63554;BME280;49699;48.072;7.800;2023-05-01T08:55:45;99288.09;;;14.41;76.92
63554;BME280;49699;48.072;7.800;2023-05-01T08:58:16;99293.28;;;14.65;75.86
63554;BME280;49699;48.072;7.800;2023-05-01T09:00:42;99288.38;;;14.72;75.72
63554;BME280;49699;48.072;7.800;2023-05-01T09:03:10;99290.88;;;14.73;75.41
63554;BME280;49699;48.072;7.800;2023-05-01T09:05:35;99287.34;;;14.85;75.04
63554;BME280;49699;48.072;7.800;2023-05-01T09:08:01;99286.25;;;14.99;74.52
63554;BME280;49699;48.072;7.800;2023-05-01T09:10:27;99291.38;;;15.12;74.29
63554;BME280;49699;48.072;7.800;2023-05-01T09:12:56;99285.75;;;15.27;73.89
63554;BME280;49699;48.072;7.800;2023-05-01T09:15:25;99281.34;;;15.39;73.23
63554;BME280;49699;48.072;7.800;2023-05-01T09:17:51;99277.59;;;15.53;73.09
63554;BME280;49699;48.072;7.800;2023-05-01T09:20:16;99293.44;;;15.62;72.36
63554;BME280;49699;48.072;7.800;2023-05-01T09:22:42;99288.44;;;15.71;72.24
63554;BME280;49699;48.072;7.800;2023-05-01T09:25:08;99287.66;;;15.91;71.66
63554;BME280;49699;48.072;7.800;2023-05-01T09:27:35;99288.47;;;16.12;70.46
63554;BME280;49699;48.072;7.800;2023-05-01T09:30:00;99281.44;;;16.33;69.75
63554;BME280;49699;48.072;7.800;2023-05-01T09:32:26;99276.56;;;16.50;68.92
63554;BME280;49699;48.072;7.800;2023-05-01T09:34:55;99275.41;;;16.84;67.83
63554;BME280;49699;48.072;7.800;2023-05-01T09:37:33;99279.75;;;16.95;67.16
63554;BME280;49699;48.072;7.800;2023-05-01T09:40:08;99280.34;;;17.08;66.70
63554;BME280;49699;48.072;7.800;2023-05-01T09:42:52;99278.91;;;17.44;65.36
63554;BME280;49699;48.072;7.800;2023-05-01T09:45:20;99281.22;;;17.97;63.43
63554;BME280;49699;48.072;7.800;2023-05-01T09:47:45;99278.00;;;18.42;61.74
63554;BME280;49699;48.072;7.800;2023-05-01T09:50:11;99278.59;;;18.82;60.12
63554;BME280;49699;48.072;7.800;2023-05-01T09:52:52;99267.13;;;19.01;58.90
63554;BME280;49699;48.072;7.800;2023-05-01T09:55:17;99268.63;;;19.13;58.25
63554;BME280;49699;48.072;7.800;2023-05-01T09:57:43;99266.09;;;19.39;57.61
63554;BME280;49699;48.072;7.800;2023-05-01T10:00:09;99266.88;;;19.49;57.36
63554;BME280;49699;48.072;7.800;2023-05-01T10:02:35;99262.13;;;19.53;57.25
63554;BME280;49699;48.072;7.800;2023-05-01T10:05:00;99254.63;;;19.58;56.92
63554;BME280;49699;48.072;7.800;2023-05-01T10:07:26;99256.31;;;19.49;56.86
63554;BME280;49699;48.072;7.800;2023-05-01T10:09:52;99265.81;;;19.42;57.02
63554;BME280;49699;48.072;7.800;2023-05-01T10:12:27;99261.06;;;19.46;57.19
63554;BME280;49699;48.072;7.800;2023-05-01T10:14:53;99260.53;;;19.42;56.97
63554;BME280;49699;48.072;7.800;2023-05-01T10:17:19;99258.94;;;19.31;57.23
63554;BME280;49699;48.072;7.800;2023-05-01T10:19:45;99260.63;;;19.23;57.28
63554;BME280;49699;48.072;7.800;2023-05-01T10:22:13;99260.19;;;19.27;57.22
63554;BME280;49699;48.072;7.800;2023-05-01T10:24:39;99265.41;;;19.37;56.80
63554;BME280;49699;48.072;7.800;2023-05-01T10:27:05;99264.38;;;19.48;56.33
63554;BME280;49699;48.072;7.800;2023-05-01T10:29:30;99261.50;;;19.68;55.47
63554;BME280;49699;48.072;7.800;2023-05-01T10:31:56;99257.88;;;19.69;54.48
63554;BME280;49699;48.072;7.800;2023-05-01T10:34:22;99259.75;;;19.77;54.04
63554;BME280;49699;48.072;7.800;2023-05-01T10:36:53;99258.19;;;19.84;53.29
63554;BME280;49699;48.072;7.800;2023-05-01T10:39:39;99260.97;;;20.00;52.69
63554;BME280;49699;48.072;7.800;2023-05-01T10:42:08;99259.16;;;20.27;51.81
63554;BME280;49699;48.072;7.800;2023-05-01T10:44:41;99247.00;;;20.52;51.03
63554;BME280;49699;48.072;7.800;2023-05-01T10:50:02;99237.63;;;20.57;50.29
63554;BME280;49699;48.072;7.800;2023-05-01T10:52:28;99243.16;;;20.46;50.11
63554;BME280;49699;48.072;7.800;2023-05-01T10:54:53;99239.66;;;20.20;50.49
63554;BME280;49699;48.072;7.800;2023-05-01T10:57:42;99236.78;;;20.13;50.05
63554;BME280;49699;48.072;7.800;2023-05-01T11:02:34;99232.53;;;20.38;49.40
63554;BME280;49699;48.072;7.800;2023-05-01T11:04:59;99226.16;;;20.83;48.41
63554;BME280;49699;48.072;7.800;2023-05-01T11:07:24;99226.03;;;21.34;47.16
63554;BME280;49699;48.072;7.800;2023-05-01T11:09:52;99214.50;;;21.60;46.68
63554;BME280;49699;48.072;7.800;2023-05-01T11:15:07;99217.66;;;21.71;46.25
63554;BME280;49699;48.072;7.800;2023-05-01T11:20:08;99210.25;;;21.17;47.27
63554;BME280;49699;48.072;7.800;2023-05-01T11:22:34;99209.03;;;20.95;47.85
63554;BME280;49699;48.072;7.800;2023-05-01T11:25:00;99208.38;;;21.01;48.02
63554;BME280;49699;48.072;7.800;2023-05-01T11:27:26;99205.63;;;21.10;47.47
63554;BME280;49699;48.072;7.800;2023-05-01T11:29:52;99205.41;;;21.04;47.47
63554;BME280;49699;48.072;7.800;2023-05-01T11:32:18;99200.13;;;20.96;47.00
63554;BME280;49699;48.072;7.800;2023-05-01T11:34:43;99204.75;;;21.02;46.45
63554;BME280;49699;48.072;7.800;2023-05-01T11:37:09;99203.44;;;21.14;45.98
63554;BME280;49699;48.072;7.800;2023-05-01T11:39:34;99206.44;;;21.19;45.47
63554;BME280;49699;48.072;7.800;2023-05-01T11:42:08;99192.38;;;21.19;45.67
63554;BME280;49699;48.072;7.800;2023-05-01T11:44:34;99190.56;;;21.19;45.49
63554;BME280;49699;48.072;7.800;2023-05-01T11:46:59;99183.31;;;21.21;45.41
63554;BME280;49699;48.072;7.800;2023-05-01T11:49:26;99184.34;;;21.28;45.35
63554;BME280;49699;48.072;7.800;2023-05-01T11:51:55;99177.25;;;21.53;45.20
63554;BME280;49699;48.072;7.800;2023-05-01T11:54:20;99174.28;;;21.97;43.86
63554;BME280;49699;48.072;7.800;2023-05-01T11:56:45;99177.72;;;22.38;41.96
63554;BME280;49699;48.072;7.800;2023-05-01T11:59:12;99173.13;;;22.71;40.48
63554;BME280;49699;48.072;7.800;2023-05-01T12:01:41;99168.31;;;23.13;39.67
63554;BME280;49699;48.072;7.800;2023-05-01T12:04:08;99166.50;;;23.37;38.79
63554;BME280;49699;48.072;7.800;2023-05-01T12:06:37;99166.06;;;23.56;38.29
63554;BME280;49699;48.072;7.800;2023-05-01T12:09:05;99164.22;;;23.79;37.78
63554;BME280;49699;48.072;7.800;2023-05-01T12:11:32;99163.97;;;24.04;37.05
63554;BME280;49699;48.072;7.800;2023-05-01T12:13:57;99170.59;;;23.70;37.33
63554;BME280;49699;48.072;7.800;2023-05-01T12:16:23;99170.75;;;23.23;38.29
63554;BME280;49699;48.072;7.800;2023-05-01T12:18:49;99178.28;;;22.72;38.92
63554;BME280;49699;48.072;7.800;2023-05-01T12:21:15;99186.72;;;22.21;39.48
63554;BME280;49699;48.072;7.800;2023-05-01T12:23:41;99184.56;;;21.59;40.58
63554;BME280;49699;48.072;7.800;2023-05-01T12:29:00;99182.38;;;20.88;42.00
63554;BME280;49699;48.072;7.800;2023-05-01T12:31:26;99194.25;;;20.76;42.59
63554;BME280;49699;48.072;7.800;2023-05-01T12:33:53;99193.00;;;20.62;43.04
63554;BME280;49699;48.072;7.800;2023-05-01T12:36:19;99194.59;;;20.47;43.39
63554;BME280;49699;48.072;7.800;2023-05-01T12:39:08;99188.66;;;20.27;43.28
63554;BME280;49699;48.072;7.800;2023-05-01T12:41:44;99201.22;;;20.07;43.82
63554;BME280;49699;48.072;7.800;2023-05-01T12:46:41;99199.28;;;19.92;44.17
63554;BME280;49699;48.072;7.800;2023-05-01T12:49:07;99211.53;;;19.93;44.40
63554;BME280;49699;48.072;7.800;2023-05-01T12:51:32;99203.97;;;19.98;44.75
63554;BME280;49699;48.072;7.800;2023-05-01T12:53:57;99203.13;;;20.15;44.51
63554;BME280;49699;48.072;7.800;2023-05-01T12:56:23;99200.81;;;20.38;43.97
63554;BME280;49699;48.072;7.800;2023-05-01T12:58:49;99197.16;;;20.65;43.44
63554;BME280;49699;48.072;7.800;2023-05-01T13:01:22;99196.28;;;20.98;42.38
63554;BME280;49699;48.072;7.800;2023-05-01T13:03:47;99197.63;;;21.02;42.20
63554;BME280;49699;48.072;7.800;2023-05-01T13:06:13;99201.09;;;21.03;42.79
63554;BME280;49699;48.072;7.800;2023-05-01T13:08:38;99197.63;;;20.94;42.62
63554;BME280;49699;48.072;7.800;2023-05-01T13:13:36;99203.75;;;21.03;42.42
63554;BME280;49699;48.072;7.800;2023-05-01T13:16:03;99197.84;;;21.09;42.38
63554;BME280;49699;48.072;7.800;2023-05-01T13:18:29;99199.13;;;21.05;42.78
63554;BME280;49699;48.072;7.800;2023-05-01T13:20:55;99196.28;;;20.90;43.33
63554;BME280;49699;48.072;7.800;2023-05-01T13:23:20;99195.84;;;20.69;43.83
63554;BME280;49699;48.072;7.800;2023-05-01T13:25:46;99200.22;;;20.52;44.11
63554;BME280;49699;48.072;7.800;2023-05-01T13:28:16;99188.72;;;20.35;44.57
63554;BME280;49699;48.072;7.800;2023-05-01T13:30:41;99194.44;;;20.23;44.66
63554;BME280;49699;48.072;7.800;2023-05-01T13:33:08;99194.50;;;20.13;44.86
63554;BME280;49699;48.072;7.800;2023-05-01T13:35:34;99186.69;;;20.03;45.21
63554;BME280;49699;48.072;7.800;2023-05-01T13:38:00;99205.63;;;19.99;45.46